createdAt,value
2018-08-21T00:00:02.834Z,97.57
2018-08-21T00:01:11.479Z,97.96
2018-08-21T00:02:20.126Z,97.47
2018-08-21T00:03:28.768Z,98.34
2018-08-21T00:04:37.420Z,98.19
2018-08-21T00:05:46.065Z,98.1
2018-08-21T00:06:54.715Z,98.58
2018-08-21T00:08:03.352Z,98.19
2018-08-21T00:09:12.003Z,98.19
2018-08-21T00:10:20.657Z,98.29
2018-08-21T00:11:29.306Z,98.67
2018-08-21T00:12:37.962Z,98.96
2018-08-21T00:13:46.602Z,98.77
2018-08-21T00:14:55.255Z,99.05
2018-08-21T00:16:04.176Z,98.96
2018-08-21T00:17:13.089Z,98.67
2018-08-21T00:18:21.734Z,99.15
2018-08-21T00:19:30.377Z,99.15
2018-08-21T00:20:39.023Z,99.15
2018-08-21T00:21:47.668Z,99.29
2018-08-21T00:22:56.320Z,99.34
2018-08-21T00:24:04.965Z,99.68
2018-08-21T00:25:13.615Z,99.99
2018-08-21T00:26:22.251Z,99.99
2018-08-21T00:27:30.908Z,99.99
2018-08-21T00:28:39.549Z,99.96
2018-08-21T00:29:48.200Z,99.99
2018-08-21T00:30:56.841Z,99.99
2018-08-21T00:32:05.497Z,99.99
2018-08-21T00:33:14.400Z,99.99
2018-08-21T00:34:23.050Z,99.99
2018-08-21T00:35:31.689Z,99.99
2018-08-21T00:36:40.338Z,99.99
2018-08-21T00:37:48.990Z,99.99
2018-08-21T00:38:57.646Z,99.99
2018-08-21T00:40:06.560Z,99.99
2018-08-21T00:41:15.210Z,99.99
2018-08-21T00:42:23.853Z,99.99
2018-08-21T00:43:32.492Z,99.99
2018-08-21T00:44:41.416Z,99.99
2018-08-21T00:45:50.312Z,99.99
2018-08-21T00:46:58.964Z,99.99
2018-08-21T00:48:07.610Z,99.99
2018-08-21T00:49:16.266Z,99.99
2018-08-21T00:50:24.905Z,99.99
2018-08-21T00:51:33.557Z,99.99
2018-08-21T00:52:42.208Z,99.99
2018-08-21T00:53:51.396Z,99.99
2018-08-21T00:55:00.039Z,99.99
2018-08-21T00:56:08.681Z,99.99
2018-08-21T00:57:17.585Z,99.99
2018-08-21T00:58:26.235Z,99.99
2018-08-21T00:59:34.887Z,99.99
2018-08-21T01:00:43.530Z,99.99
2018-08-21T01:01:52.177Z,99.99
2018-08-21T01:03:00.813Z,99.99
2018-08-21T01:04:09.735Z,99.99
2018-08-21T01:05:18.380Z,99.99
2018-08-21T01:06:27.034Z,99.99
2018-08-21T01:07:35.937Z,99.99
2018-08-21T01:08:44.589Z,99.99
2018-08-21T01:09:53.495Z,99.99
2018-08-21T01:11:02.145Z,99.99
2018-08-21T01:12:10.786Z,99.99
2018-08-21T01:13:19.437Z,99.99
2018-08-21T01:14:28.089Z,99.99
2018-08-21T01:15:36.737Z,99.99
2018-08-21T01:16:45.386Z,99.99
2018-08-21T01:17:54.030Z,99.99
2018-08-21T01:19:02.675Z,99.99
2018-08-21T01:20:11.324Z,99.99
2018-08-21T01:21:19.975Z,99.99
2018-08-21T01:22:28.619Z,99.99
2018-08-21T01:23:37.265Z,99.99
2018-08-21T01:24:46.372Z,99.99
2018-08-21T01:25:55.024Z,99.99
2018-08-21T01:27:03.668Z,99.99
2018-08-21T01:28:12.318Z,99.99
2018-08-21T01:29:20.962Z,99.99
2018-08-21T01:30:29.614Z,99.99
2018-08-21T01:31:38.257Z,99.99
2018-08-21T01:32:46.907Z,99.99
2018-08-21T01:33:55.814Z,99.99
2018-08-21T01:35:04.458Z,99.99
2018-08-21T01:36:13.108Z,99.99
2018-08-21T01:37:22.019Z,99.99
2018-08-21T01:38:30.665Z,99.99
2018-08-21T01:39:39.314Z,99.99
2018-08-21T01:40:48.226Z,99.99
2018-08-21T01:41:56.874Z,99.99
2018-08-21T01:43:05.519Z,99.99
2018-08-21T01:44:14.160Z,99.99
2018-08-21T01:45:22.812Z,99.99
2018-08-21T01:46:31.456Z,99.99
2018-08-21T01:47:40.367Z,99.99
2018-08-21T01:48:49.273Z,99.99
2018-08-21T01:49:57.924Z,99.99
2018-08-21T01:51:06.835Z,99.99
2018-08-21T01:52:15.482Z,99.99
2018-08-21T01:53:24.131Z,99.99
2018-08-21T01:54:32.767Z,99.99
2018-08-21T01:55:41.948Z,99.99
2018-08-21T01:56:50.596Z,99.99
2018-08-21T01:57:59.250Z,99.99
2018-08-21T01:59:07.892Z,99.99
2018-08-21T02:00:17.335Z,99.99
2018-08-21T02:01:25.982Z,99.99
2018-08-21T02:02:34.633Z,99.99
2018-08-21T02:03:43.535Z,99.99
2018-08-21T02:04:52.183Z,99.99
2018-08-21T02:06:01.358Z,99.99
2018-08-21T02:07:09.997Z,99.99
2018-08-21T02:08:18.647Z,99.99
2018-08-21T02:09:27.300Z,99.99
2018-08-21T02:10:35.951Z,99.99
2018-08-21T02:11:44.601Z,99.99
2018-08-21T02:12:53.237Z,99.99
2018-08-21T02:14:01.925Z,99.99
2018-08-21T02:15:10.826Z,99.99
2018-08-21T02:16:19.483Z,99.99
2018-08-21T02:17:28.123Z,99.99
2018-08-21T02:18:36.772Z,99.99
2018-08-21T02:19:45.411Z,99.99
2018-08-21T02:20:54.069Z,99.99
2018-08-21T02:22:03.236Z,99.99
2018-08-21T02:23:11.883Z,99.99
2018-08-21T02:24:20.526Z,99.99
2018-08-21T02:25:29.180Z,99.99
2018-08-21T02:26:37.824Z,99.99
2018-08-21T02:27:46.465Z,99.99
2018-08-21T02:28:55.110Z,99.99
2018-08-21T02:30:04.281Z,99.99
2018-08-21T02:31:13.202Z,99.99
2018-08-21T02:32:21.846Z,99.99
2018-08-21T02:33:30.767Z,99.99
2018-08-21T02:34:39.669Z,99.99
2018-08-21T02:35:48.324Z,99.99
2018-08-21T02:36:56.972Z,99.99
2018-08-21T02:38:05.899Z,99.99
2018-08-21T02:39:14.804Z,99.99
2018-08-21T02:40:23.458Z,99.99
2018-08-21T02:41:32.105Z,99.99
2018-08-21T02:42:40.753Z,99.99
2018-08-21T02:43:49.391Z,99.99
2018-08-21T02:44:58.041Z,99.99
2018-08-21T02:46:06.689Z,99.99
2018-08-21T02:47:15.339Z,99.99
2018-08-21T02:48:23.986Z,99.99
2018-08-21T02:49:32.625Z,99.99
2018-08-21T02:50:41.277Z,99.99
2018-08-21T02:51:49.920Z,99.99
2018-08-21T02:52:58.576Z,99.99
2018-08-21T02:54:07.484Z,99.99
2018-08-21T02:55:16.663Z,99.99
2018-08-21T02:56:25.303Z,99.99
2018-08-21T02:57:33.956Z,99.99
2018-08-21T02:58:42.595Z,99.99
2018-08-21T02:59:51.247Z,99.99
2018-08-21T03:00:59.889Z,99.99
2018-08-21T03:02:08.547Z,99.99
2018-08-21T03:03:17.452Z,99.99
2018-08-21T03:04:26.356Z,99.99
2018-08-21T03:05:35.002Z,99.99
2018-08-21T03:06:43.647Z,99.99
2018-08-21T03:07:52.295Z,99.99
2018-08-21T03:09:00.947Z,99.99
2018-08-21T03:10:09.858Z,99.99
2018-08-21T03:11:18.504Z,99.99
2018-08-21T03:12:27.157Z,99.99
2018-08-21T03:13:36.071Z,99.99
2018-08-21T03:14:44.716Z,99.99
2018-08-21T03:15:53.369Z,99.99
2018-08-21T03:17:02.019Z,99.99
2018-08-21T03:18:10.667Z,99.99
2018-08-21T03:19:19.588Z,99.99
2018-08-21T03:20:28.782Z,99.99
2018-08-21T03:21:37.467Z,99.99
2018-08-21T03:22:46.423Z,99.99
2018-08-21T03:23:55.077Z,99.99
2018-08-21T03:25:04.259Z,99.99
2018-08-21T03:26:13.167Z,99.99
2018-08-21T03:27:21.809Z,99.99
2018-08-21T03:28:30.454Z,99.99
2018-08-21T03:29:39.106Z,99.99
2018-08-21T03:30:47.753Z,99.99
2018-08-21T03:31:56.670Z,99.99
2018-08-21T03:33:05.579Z,99.99
2018-08-21T03:34:14.228Z,99.99
2018-08-21T03:35:22.871Z,99.99
2018-08-21T03:36:31.518Z,99.99
2018-08-21T03:37:40.162Z,99.99
2018-08-21T03:38:48.816Z,99.99
2018-08-21T03:39:57.729Z,99.99
2018-08-21T03:41:06.374Z,99.99
2018-08-21T03:42:15.018Z,99.99
2018-08-21T03:43:23.928Z,99.99
2018-08-21T03:44:32.576Z,99.99
2018-08-21T03:45:41.223Z,99.99
2018-08-21T03:46:50.128Z,99.99
2018-08-21T03:47:58.776Z,99.99
2018-08-21T03:49:07.424Z,99.99
2018-08-21T03:50:16.069Z,99.99
2018-08-21T03:51:24.722Z,99.99
2018-08-21T03:52:33.360Z,99.99
2018-08-21T03:53:42.010Z,99.99
2018-08-21T03:54:50.650Z,99.99
2018-08-21T03:55:59.834Z,99.99
2018-08-21T03:57:08.737Z,99.99
2018-08-21T03:58:17.648Z,99.99
2018-08-21T03:59:26.294Z,99.99
2018-08-21T04:00:34.941Z,99.99
2018-08-21T04:01:43.857Z,99.99
2018-08-21T04:02:52.495Z,99.99
2018-08-21T04:04:01.144Z,99.99
2018-08-21T04:05:09.897Z,99.99
2018-08-21T04:06:19.287Z,99.99
2018-08-21T04:07:27.949Z,99.99
2018-08-21T04:08:36.591Z,99.99
2018-08-21T04:09:45.236Z,99.99
2018-08-21T04:10:53.876Z,99.99
2018-08-21T04:12:02.525Z,99.99
2018-08-21T04:13:11.170Z,99.99
2018-08-21T04:14:19.820Z,99.99
2018-08-21T04:15:28.461Z,99.99
2018-08-21T04:16:37.115Z,99.99
2018-08-21T04:17:45.757Z,99.99
2018-08-21T04:18:54.672Z,99.99
2018-08-21T04:20:03.323Z,99.99
2018-08-21T04:21:11.963Z,99.99
2018-08-21T04:22:20.615Z,99.99
2018-08-21T04:23:29.261Z,99.99
2018-08-21T04:24:37.982Z,99.99
2018-08-21T04:25:46.559Z,99.99
2018-08-21T04:26:55.208Z,99.99
2018-08-21T04:28:03.857Z,99.99
2018-08-21T04:29:12.508Z,99.99
2018-08-21T04:30:21.146Z,99.99
2018-08-21T04:31:29.790Z,99.99
2018-08-21T04:32:38.485Z,99.99
2018-08-21T04:33:47.350Z,99.99
2018-08-21T04:34:56.253Z,99.99
2018-08-21T04:36:04.902Z,99.99
2018-08-21T04:37:13.805Z,99.99
2018-08-21T04:38:22.448Z,99.99
2018-08-21T04:39:31.099Z,99.99
2018-08-21T04:40:39.744Z,99.99
2018-08-21T04:41:48.395Z,99.99
2018-08-21T04:42:57.036Z,99.99
2018-08-21T04:44:05.685Z,99.99
2018-08-21T04:45:14.336Z,99.99
2018-08-21T04:46:23.020Z,99.99
2018-08-21T04:47:31.620Z,99.99
2018-08-21T04:48:40.272Z,99.99
2018-08-21T04:49:48.920Z,99.99
2018-08-21T04:50:57.827Z,99.99
2018-08-21T04:52:06.468Z,99.99
2018-08-21T04:53:15.117Z,99.99
2018-08-21T04:54:23.764Z,99.99
2018-08-21T04:55:32.413Z,99.99
2018-08-21T04:56:41.062Z,99.99
2018-08-21T04:57:49.709Z,99.99
2018-08-21T04:58:58.395Z,99.99
2018-08-21T05:00:07.677Z,99.99
2018-08-21T05:01:16.328Z,99.99
2018-08-21T05:02:24.965Z,99.99
2018-08-21T05:03:33.618Z,99.99
2018-08-21T05:04:42.258Z,99.99
2018-08-21T05:05:51.258Z,99.99
2018-08-21T05:06:59.814Z,99.99
2018-08-21T05:08:08.725Z,99.99
2018-08-21T05:09:17.371Z,99.99
2018-08-21T05:10:26.024Z,99.99
2018-08-21T05:11:34.932Z,99.99
2018-08-21T05:12:44.051Z,99.99
2018-08-21T05:13:52.594Z,99.99
2018-08-21T05:15:01.238Z,99.99
2018-08-21T05:16:09.891Z,99.99
2018-08-21T05:17:18.536Z,99.99
2018-08-21T05:18:27.187Z,99.99
2018-08-21T05:19:35.825Z,99.99
2018-08-21T05:20:44.481Z,99.99
2018-08-21T05:21:53.383Z,99.99
2018-08-21T05:23:02.038Z,99.99
2018-08-21T05:24:10.669Z,99.99
2018-08-21T05:25:19.324Z,99.99
2018-08-21T05:26:27.968Z,99.99
2018-08-21T05:27:36.619Z,99.99
2018-08-21T05:28:45.334Z,99.99
2018-08-21T05:29:53.908Z,99.99
2018-08-21T05:31:02.559Z,99.99
2018-08-21T05:32:11.733Z,99.99
2018-08-21T05:33:20.380Z,99.99
2018-08-21T05:34:29.017Z,99.99
2018-08-21T05:35:37.667Z,99.99
2018-08-21T05:36:46.313Z,99.99
2018-08-21T05:37:54.969Z,99.99
2018-08-21T05:39:03.598Z,99.99
2018-08-21T05:40:12.253Z,99.99
2018-08-21T05:41:21.167Z,99.99
2018-08-21T05:42:29.822Z,99.99
2018-08-21T05:43:38.913Z,99.99
2018-08-21T05:44:47.506Z,99.99
2018-08-21T05:45:56.148Z,99.99
2018-08-21T05:47:04.803Z,99.99
2018-08-21T05:48:13.719Z,99.99
2018-08-21T05:49:22.617Z,99.99
2018-08-21T05:50:31.538Z,99.99
2018-08-21T05:51:40.187Z,99.99
2018-08-21T05:52:48.845Z,99.99
2018-08-21T05:53:57.488Z,99.99
2018-08-21T05:55:06.144Z,99.99
2018-08-21T05:56:15.125Z,99.99
2018-08-21T05:57:23.780Z,99.99
2018-08-21T05:58:32.423Z,99.99
2018-08-21T05:59:41.074Z,99.99
2018-08-21T06:00:49.717Z,99.99
2018-08-21T06:01:58.358Z,99.99
2018-08-21T06:03:07.002Z,99.99
2018-08-21T06:04:15.650Z,99.99
2018-08-21T06:05:24.292Z,99.99
2018-08-21T06:06:32.945Z,99.99
2018-08-21T06:07:41.862Z,99.99
2018-08-21T06:08:50.798Z,99.99
2018-08-21T06:09:59.442Z,99.99
2018-08-21T06:11:08.352Z,99.99
2018-08-21T06:12:17.006Z,99.99
2018-08-21T06:13:25.921Z,99.99
2018-08-21T06:14:34.568Z,99.99
2018-08-21T06:15:43.212Z,99.99
2018-08-21T06:16:51.866Z,99.99
2018-08-21T06:18:00.958Z,99.99
2018-08-21T06:19:09.874Z,99.99
2018-08-21T06:20:18.894Z,99.99
2018-08-21T06:21:27.809Z,99.99
2018-08-21T06:22:36.581Z,99.99
2018-08-21T06:23:45.316Z,99.99
2018-08-21T06:24:54.014Z,99.99
2018-08-21T06:26:02.610Z,99.99
2018-08-21T06:27:11.511Z,99.99
2018-08-21T06:28:20.426Z,99.87
2018-08-21T06:29:29.344Z,99.99
2018-08-21T06:30:38.528Z,99.99
2018-08-21T06:31:47.448Z,99.99
2018-08-21T06:32:56.083Z,99.54
2018-08-21T06:34:04.731Z,99.25
2018-08-21T06:35:13.411Z,99.4
2018-08-21T06:36:22.318Z,98.82
2018-08-21T06:37:30.960Z,98.53
2018-08-21T06:38:39.612Z,98.24
2018-08-21T06:39:48.336Z,97.96
2018-08-21T06:40:57.418Z,97.71
2018-08-21T06:42:06.065Z,97.14
2018-08-21T06:43:14.710Z,96.37
2018-08-21T06:44:23.355Z,96.27
2018-08-21T06:45:32.004Z,95.75
2018-08-21T06:46:40.786Z,95.84
2018-08-21T06:47:49.316Z,95.55
2018-08-21T06:48:57.963Z,95.6
2018-08-21T06:50:06.607Z,95.12
2018-08-21T06:51:15.262Z,94.83
2018-08-21T06:52:23.908Z,94.73
2018-08-21T06:53:32.556Z,93.58
2018-08-21T06:54:41.203Z,93.15
2018-08-21T06:55:49.857Z,93.05
2018-08-21T06:56:58.499Z,92.76
2018-08-21T06:58:07.151Z,92.76
2018-08-21T06:59:16.061Z,91.75
2018-08-21T07:00:24.720Z,91.36
2018-08-21T07:01:33.631Z,91.55
2018-08-21T07:02:42.280Z,90.44
2018-08-21T07:03:50.935Z,90.44
2018-08-21T07:04:59.581Z,90.34
2018-08-21T07:06:08.248Z,90.06
2018-08-21T07:07:16.891Z,88.08
2018-08-21T07:08:25.546Z,87.5
2018-08-21T07:09:34.186Z,87.5
2018-08-21T07:10:42.844Z,87.7
2018-08-21T07:11:51.752Z,87.7
2018-08-21T07:13:00.407Z,87.6
2018-08-21T07:14:09.047Z,86.92
2018-08-21T07:15:17.708Z,86.05
2018-08-21T07:16:26.350Z,86.44
2018-08-21T07:17:35.001Z,86.15
2018-08-21T07:18:43.643Z,86.87
2018-08-21T07:19:52.290Z,86.82
2018-08-21T07:21:00.943Z,86.39
2018-08-21T07:22:09.620Z,86.29
2018-08-21T07:23:18.253Z,86.29
2018-08-21T07:24:26.894Z,86.39
2018-08-21T07:25:35.548Z,85.52
2018-08-21T07:26:44.454Z,85.52
2018-08-21T07:27:53.114Z,85.33
2018-08-21T07:29:02.023Z,85.03
2018-08-21T07:30:10.668Z,84.75
2018-08-21T07:31:19.313Z,84.17
2018-08-21T07:32:27.972Z,83.34
2018-08-21T07:33:36.618Z,83.63
2018-08-21T07:34:45.271Z,83.53
2018-08-21T07:35:53.919Z,83.83
2018-08-21T07:37:02.841Z,83.34
2018-08-21T07:38:11.490Z,83.25
2018-08-21T07:39:20.140Z,82.71
2018-08-21T07:40:29.354Z,82.71
2018-08-21T07:41:37.967Z,83.09
2018-08-21T07:42:46.620Z,81.93
2018-08-21T07:43:55.266Z,82.03
2018-08-21T07:45:03.920Z,82.42
2018-08-21T07:46:12.561Z,82.03
2018-08-21T07:47:21.224Z,82.03
2018-08-21T07:48:29.865Z,81.65
2018-08-21T07:49:38.521Z,81.45
2018-08-21T07:50:47.161Z,81.93
2018-08-21T07:51:55.819Z,81.35
2018-08-21T07:53:04.467Z,80.68
2018-08-21T07:54:13.124Z,80.58
2018-08-21T07:55:21.765Z,80.87
2018-08-21T07:56:30.424Z,80.68
2018-08-21T07:57:39.081Z,80.1
2018-08-21T07:58:47.724Z,79.95
2018-08-21T07:59:56.371Z,80.3
2018-08-21T08:01:05.032Z,80.1
2018-08-21T08:02:13.941Z,79.47
2018-08-21T08:03:22.597Z,80.05
2018-08-21T08:04:31.237Z,80.3
2018-08-21T08:05:40.164Z,79.66
2018-08-21T08:06:48.810Z,79.75
2018-08-21T08:07:57.472Z,79.95
2018-08-21T08:09:06.642Z,79.66
2018-08-21T08:10:15.562Z,79.37
2018-08-21T08:11:24.212Z,79.75
2018-08-21T08:12:33.125Z,79.08
2018-08-21T08:13:41.863Z,79.17
2018-08-21T08:14:50.420Z,79.17
2018-08-21T08:15:59.079Z,79.17
2018-08-21T08:17:07.727Z,78.59
2018-08-21T08:18:16.381Z,79.27
2018-08-21T08:19:25.025Z,78.69
2018-08-21T08:20:33.683Z,78.79
2018-08-21T08:21:42.336Z,78.83
2018-08-21T08:22:51.007Z,77.19
2018-08-21T08:23:59.633Z,77.09
2018-08-21T08:25:08.295Z,77
2018-08-21T08:26:16.941Z,77.09
2018-08-21T08:27:25.601Z,77.19
2018-08-21T08:28:34.244Z,77.09
2018-08-21T08:29:42.899Z,76.7
2018-08-21T08:30:51.550Z,77.32
2018-08-21T08:32:00.211Z,76.45
2018-08-21T08:33:08.858Z,75.48
2018-08-21T08:34:17.506Z,75.1
2018-08-21T08:35:26.155Z,75.2
2018-08-21T08:36:34.805Z,75.29
2018-08-21T08:37:43.464Z,75.78
2018-08-21T08:38:52.113Z,76.32
2018-08-21T08:40:00.767Z,76.03
2018-08-21T08:41:09.407Z,76.22
2018-08-21T08:42:18.336Z,76.03
2018-08-21T08:43:26.987Z,76.64
2018-08-21T08:44:35.644Z,76.74
2018-08-21T08:45:44.556Z,76.35
2018-08-21T08:46:53.219Z,75.68
2018-08-21T08:48:01.869Z,75.26
2018-08-21T08:49:14.543Z,75.26
2018-08-21T08:50:59.124Z,75.58
2018-08-21T08:52:07.793Z,74.9
2018-08-21T08:53:26.724Z,75
2018-08-21T08:54:36.556Z,74.32
2018-08-21T08:55:45.473Z,73.65
2018-08-21T08:56:54.119Z,72.49
2018-08-21T08:58:02.771Z,72.97
2018-08-21T08:59:11.455Z,73.94
2018-08-21T09:00:20.086Z,74.42
2018-08-21T09:01:30.258Z,74.13
2018-08-21T09:02:42.114Z,74.62
2018-08-21T09:03:53.511Z,74.9
2018-08-21T09:05:05.837Z,74.81
2018-08-21T09:06:16.878Z,74.9
2018-08-21T09:07:28.710Z,74.46
2018-08-21T09:08:40.141Z,73.3
2018-08-21T09:09:51.957Z,72.52
2018-08-21T09:11:03.393Z,73.78
2018-08-21T09:12:15.230Z,73.49
2018-08-21T09:13:25.901Z,73.53
2018-08-21T09:14:37.152Z,73.72
2018-08-21T09:15:49.413Z,73.53
2018-08-21T09:17:01.032Z,73.72
2018-08-21T09:18:14.085Z,72.75
2018-08-21T09:19:26.790Z,72.17
2018-08-21T09:20:39.337Z,72.66
2018-08-21T09:21:52.076Z,72.66
2018-08-21T09:23:05.485Z,72.36
2018-08-21T09:24:17.603Z,72.36
2018-08-21T09:25:29.055Z,72.21
2018-08-21T09:26:41.175Z,72.46
2018-08-21T09:27:53.853Z,72.02
2018-08-21T09:29:04.805Z,71.04
2018-08-21T09:30:17.055Z,71.04
2018-08-21T09:31:30.851Z,70.95
2018-08-21T09:32:43.514Z,69.98
2018-08-21T09:33:56.193Z,70.37
2018-08-21T09:35:08.792Z,69.89
2018-08-21T09:36:21.529Z,69.89
2018-08-21T09:37:34.547Z,70.37
2018-08-21T09:38:46.292Z,71.14
2018-08-21T09:39:57.962Z,70.18
2018-08-21T09:41:09.118Z,69.69
2018-08-21T09:42:20.602Z,69.89
2018-08-21T09:43:31.660Z,69.79
2018-08-21T09:44:42.689Z,70.27
2018-08-21T09:45:54.875Z,70.37
2018-08-21T09:47:05.465Z,70.76
2018-08-21T09:48:14.123Z,70.95
2018-08-21T09:49:22.771Z,70.37
2018-08-21T09:50:32.099Z,70.66
2018-08-21T09:51:40.855Z,69.4
2018-08-21T09:52:49.500Z,69.79
2018-08-21T09:53:58.160Z,69.5
2018-08-21T09:55:07.088Z,70.37
2018-08-21T09:56:15.741Z,70.08
2018-08-21T09:57:24.386Z,70.24
2018-08-21T09:58:33.050Z,70.72
2018-08-21T09:59:41.697Z,70.72
2018-08-21T10:00:50.350Z,70.43
2018-08-21T10:01:59.004Z,71.2
2018-08-21T10:03:07.990Z,72.08
2018-08-21T10:04:16.642Z,72.27
2018-08-21T10:05:25.313Z,70.95
2018-08-21T10:06:34.002Z,70.47
2018-08-21T10:07:42.616Z,71.44
2018-08-21T10:08:51.538Z,69.59
2018-08-21T10:10:00.193Z,69.59
2018-08-21T10:11:08.849Z,70.08
2018-08-21T10:12:17.760Z,70.47
2018-08-21T10:13:26.436Z,71.47
2018-08-21T10:14:35.182Z,71.28
2018-08-21T10:15:44.097Z,70.7
2018-08-21T10:16:52.948Z,71.28
2018-08-21T10:18:01.618Z,71.08
2018-08-21T10:19:10.532Z,71.56
2018-08-21T10:20:19.454Z,71.95
2018-08-21T10:21:28.107Z,72.05
2018-08-21T10:22:36.758Z,71.76
2018-08-21T10:23:45.412Z,71.62
2018-08-21T10:24:54.071Z,71.37
2018-08-21T10:26:02.994Z,70.5
2018-08-21T10:27:11.909Z,68.82
2018-08-21T10:28:20.837Z,70.66
2018-08-21T10:29:29.640Z,71.14
2018-08-21T10:30:38.801Z,70.37
2018-08-21T10:31:47.714Z,70.37
2018-08-21T10:32:56.707Z,69.31
2018-08-21T10:34:05.354Z,69.73
2018-08-21T10:35:14.014Z,70.01
2018-08-21T10:36:22.664Z,70.11
2018-08-21T10:37:31.317Z,69.82
2018-08-21T10:38:39.965Z,68.5
2018-08-21T10:39:48.627Z,67.3
2018-08-21T10:40:57.542Z,68.3
2018-08-21T10:42:06.468Z,68.21
2018-08-21T10:43:15.119Z,67.05
2018-08-21T10:44:23.773Z,67.79
2018-08-21T10:45:32.866Z,66.85
2018-08-21T10:46:41.523Z,66.27
2018-08-21T10:47:50.179Z,65.11
2018-08-21T10:48:59.087Z,65.79
2018-08-21T10:50:08.013Z,66.56
2018-08-21T10:51:16.660Z,66.95
2018-08-21T10:52:25.315Z,66.85
2018-08-21T10:53:34.227Z,66.47
2018-08-21T10:54:42.932Z,65.01
2018-08-21T10:55:51.848Z,64.62
2018-08-21T10:57:00.507Z,64.43
2018-08-21T10:58:09.158Z,64.34
2018-08-21T10:59:18.080Z,64.43
2018-08-21T11:00:26.739Z,65.11
2018-08-21T11:01:35.407Z,66.08
2018-08-21T11:02:44.056Z,65.24
2018-08-21T11:03:52.703Z,65.24
2018-08-21T11:05:01.889Z,64.27
2018-08-21T11:06:10.816Z,64.78
2018-08-21T11:07:20.000Z,64.59
2018-08-21T11:08:28.648Z,64.4
2018-08-21T11:09:37.306Z,65.37
2018-08-21T11:10:45.950Z,64.5
2018-08-21T11:11:54.614Z,65.17
2018-08-21T11:13:03.264Z,64.3
2018-08-21T11:14:12.187Z,63.43
2018-08-21T11:15:21.105Z,61.88
2018-08-21T11:16:29.774Z,61.78
2018-08-21T11:17:38.425Z,60.81
2018-08-21T11:18:47.083Z,61.78
2018-08-21T11:19:55.726Z,61.88
2018-08-21T11:21:04.447Z,62.07
2018-08-21T11:22:13.038Z,61.98
2018-08-21T11:23:21.693Z,61.88
2018-08-21T11:24:30.470Z,62.46
2018-08-21T11:25:39.117Z,61.98
2018-08-21T11:26:47.778Z,61.78
2018-08-21T11:27:56.424Z,61.29
2018-08-21T11:29:05.356Z,61
2018-08-21T11:30:14.274Z,60.91
2018-08-21T11:31:22.920Z,61
2018-08-21T11:32:31.570Z,61
2018-08-21T11:33:40.232Z,61
2018-08-21T11:34:48.877Z,61.49
2018-08-21T11:35:57.530Z,61.1
2018-08-21T11:37:06.181Z,61.1
2018-08-21T11:38:14.843Z,60.91
2018-08-21T11:39:23.498Z,59.94
2018-08-21T11:40:32.144Z,59.94
2018-08-21T11:41:40.797Z,60.61
2018-08-21T11:42:49.448Z,60.71
2018-08-21T11:43:58.115Z,61.36
2018-08-21T11:45:06.766Z,61.55
2018-08-21T11:46:15.424Z,61.26
2018-08-21T11:47:24.073Z,61.75
2018-08-21T11:48:32.736Z,61.46
2018-08-21T11:49:41.386Z,61.82
2018-08-21T11:50:50.040Z,61.72
2018-08-21T11:51:58.688Z,62.69
2018-08-21T11:53:07.342Z,62.88
2018-08-21T11:54:16.259Z,63.56
2018-08-21T11:55:24.904Z,64.62
2018-08-21T11:56:33.838Z,64.24
2018-08-21T11:57:42.487Z,64.24
2018-08-21T11:58:51.136Z,61.72
2018-08-21T11:59:59.787Z,61.52
2018-08-21T12:01:08.438Z,62.01
2018-08-21T12:02:17.100Z,62.88
2018-08-21T12:03:25.863Z,62.88
2018-08-21T12:04:34.780Z,62.88
2018-08-21T12:05:43.425Z,63.17
2018-08-21T12:06:52.366Z,62.98
2018-08-21T12:08:01.013Z,62.49
2018-08-21T12:09:09.674Z,63.3
2018-08-21T12:10:18.591Z,62.72
2018-08-21T12:11:27.515Z,61.85
2018-08-21T12:12:36.433Z,61.19
2018-08-21T12:13:45.349Z,60.81
2018-08-21T12:14:53.996Z,59.58
2018-08-21T12:16:02.922Z,59.58
2018-08-21T12:17:11.579Z,59.28
2018-08-21T12:18:20.232Z,59.09
2018-08-21T12:19:28.888Z,58.31
2018-08-21T12:20:37.537Z,57.86
2018-08-21T12:21:46.191Z,57.67
2018-08-21T12:22:55.102Z,57.76
2018-08-21T12:24:03.765Z,55.65
2018-08-21T12:25:12.407Z,55.33
2018-08-21T12:26:21.331Z,54.97
2018-08-21T12:27:29.981Z,54.88
2018-08-21T12:28:38.645Z,53.91
2018-08-21T12:29:47.299Z,54.49
2018-08-21T12:30:55.947Z,54.78
2018-08-21T12:32:04.600Z,54.52
2018-08-21T12:33:13.261Z,54.22
2018-08-21T12:34:21.912Z,53.64
2018-08-21T12:35:30.561Z,54.13
2018-08-21T12:36:39.216Z,54.52
2018-08-21T12:37:47.867Z,54.71
2018-08-21T12:38:56.532Z,54.25
2018-08-21T12:40:05.185Z,53.96
2018-08-21T12:41:14.126Z,55.39
2018-08-21T12:42:22.772Z,55.78
2018-08-21T12:43:31.433Z,55.88
2018-08-21T12:44:40.084Z,54.13
2018-08-21T12:45:48.743Z,54.8
2018-08-21T12:46:57.391Z,54.52
2018-08-21T12:48:06.317Z,54.39
2018-08-21T12:49:14.969Z,55.85
2018-08-21T12:50:23.631Z,55.85
2018-08-21T12:51:32.635Z,56.14
2018-08-21T12:52:41.295Z,55.65
2018-08-21T12:53:49.953Z,56.24
2018-08-21T12:54:58.609Z,56.04
2018-08-21T12:56:07.578Z,56.62
2018-08-21T12:57:16.234Z,56.92
2018-08-21T12:58:24.888Z,57.4
2018-08-21T12:59:33.543Z,57.28
2018-08-21T13:00:42.202Z,57.76
2018-08-21T13:01:50.850Z,58.34
2018-08-21T13:02:59.504Z,58.05
2018-08-21T13:04:08.426Z,58.61
2018-08-21T13:05:17.091Z,58.8
2018-08-21T13:06:26.005Z,59.19
2018-08-21T13:07:34.660Z,58.12
2018-08-21T13:08:43.312Z,60.35
2018-08-21T13:09:51.971Z,61.78
2018-08-21T13:11:00.619Z,62.68
2018-08-21T13:12:09.535Z,61.42
2018-08-21T13:13:18.453Z,60.74
2018-08-21T13:14:27.108Z,61.04
2018-08-21T13:15:35.764Z,59.87
2018-08-21T13:16:44.417Z,58.22
2018-08-21T13:17:53.072Z,58.51
2018-08-21T13:19:01.722Z,58.31
2018-08-21T13:20:10.648Z,58.31
2018-08-21T13:21:19.297Z,58.31
2018-08-21T13:22:27.951Z,58.03
2018-08-21T13:23:36.599Z,58.54
2018-08-21T13:24:45.333Z,60.77
2018-08-21T13:25:53.912Z,57.86
2018-08-21T13:27:02.566Z,57.86
2018-08-21T13:28:11.487Z,58.93
2018-08-21T13:29:20.197Z,59.9
2018-08-21T13:30:28.800Z,57.47
2018-08-21T13:31:37.462Z,58.05
2018-08-21T13:32:46.117Z,57.96
2018-08-21T13:33:54.768Z,57.76
2018-08-21T13:35:03.427Z,58.12
2018-08-21T13:36:12.159Z,58.41
2018-08-21T13:37:21.035Z,60.94
2018-08-21T13:38:29.685Z,61.04
2018-08-21T13:39:38.341Z,58.31
2018-08-21T13:40:47.256Z,58.51
2018-08-21T13:41:55.918Z,59
2018-08-21T13:43:04.567Z,59.19
2018-08-21T13:44:13.234Z,60.16
2018-08-21T13:45:22.538Z,60.06
2018-08-21T13:46:31.466Z,59.87
2018-08-21T13:47:40.118Z,59.03
2018-08-21T13:48:49.035Z,59.31
2018-08-21T13:49:57.689Z,58.44
2018-08-21T13:51:06.351Z,57.96
2018-08-21T13:52:15.008Z,58.54
2018-08-21T13:53:23.661Z,59.9
2018-08-21T13:54:32.581Z,60
2018-08-21T13:55:41.227Z,59.41
2018-08-21T13:56:49.889Z,60.87
2018-08-21T13:57:59.063Z,61.04
2018-08-21T13:59:07.729Z,58.54
2018-08-21T14:00:16.370Z,59
2018-08-21T14:01:25.033Z,61.52
2018-08-21T14:02:33.687Z,61.22
2018-08-21T14:03:42.341Z,62.59
2018-08-21T14:04:50.987Z,61.42
2018-08-21T14:05:59.916Z,61.91
2018-08-21T14:07:08.574Z,59.97
2018-08-21T14:08:17.229Z,59.19
2018-08-21T14:09:26.147Z,59.28
2018-08-21T14:10:34.794Z,59.97
2018-08-21T14:11:43.716Z,59.28
2018-08-21T14:12:52.424Z,59.87
2018-08-21T14:14:01.036Z,59.09
2018-08-21T14:15:09.681Z,58.9
2018-08-21T14:16:18.339Z,58.7
2018-08-21T14:17:26.987Z,58.41
2018-08-21T14:18:35.652Z,58.8
2018-08-21T14:19:44.294Z,58.31
2018-08-21T14:20:53.215Z,58.54
2018-08-21T14:22:01.871Z,58.44
2018-08-21T14:23:10.797Z,58.83
2018-08-21T14:24:19.448Z,61.25
2018-08-21T14:25:28.097Z,61.16
2018-08-21T14:26:36.748Z,61.07
2018-08-21T14:27:45.942Z,58.15
2018-08-21T14:28:54.589Z,57.67
2018-08-21T14:30:03.245Z,57.67
2018-08-21T14:31:11.904Z,57.64
2018-08-21T14:32:20.550Z,58.31
2018-08-21T14:33:29.211Z,58.31
2018-08-21T14:34:38.123Z,58.44
2018-08-21T14:35:46.780Z,58.54
2018-08-21T14:36:55.688Z,57.76
2018-08-21T14:38:04.353Z,57.18
2018-08-21T14:39:13.269Z,56.79
2018-08-21T14:40:21.923Z,58.28
2018-08-21T14:41:30.568Z,57.18
2018-08-21T14:42:39.237Z,57.28
2018-08-21T14:43:47.917Z,57.67
2018-08-21T14:44:56.540Z,58.54
2018-08-21T14:46:05.317Z,58.34
2018-08-21T14:47:14.430Z,58.05
2018-08-21T14:48:23.088Z,57.28
2018-08-21T14:49:31.739Z,57.86